Time;durP1;ratioP1;P1;durP2;ratioP2;P2;SDS_P1;SDS_P2;PMS_P1;PMS_P2;Temp;Humidity;BMP_temperature;BMP_pressure;BME280_temperature;BME280_humidity;BME280_pressure;Samples;Min_cycle;Max_cycle;Signal;HPM_P1;HPM_P2
2022/03/01 00:00:12;;;;;;;18.85;10.18;;;;;;;0.75;82.54;147860.39;1692796;84;21044;-57
2022/03/01 00:02:43;;;;;;;18.10;9.90;;;;;;;0.74;82.34;147857.81;1693111;83;21061;-57
2022/03/01 00:05:10;;;;;;;18.65;10.28;;;;;;;0.70;82.06;147847.52;1692999;84;21507;-58
2022/03/01 00:07:37;;;;;;;20.40;10.00;;;;;;;0.70;82.30;147847.52;1692846;83;21138;-58
2022/03/01 00:10:06;;;;;;;17.07;9.65;;;;;;;0.70;82.69;147847.52;1698689;83;21039;-60
2022/03/01 00:12:33;;;;;;;19.75;10.15;;;;;;;0.69;82.95;147844.95;1700544;84;21059;-58
2022/03/01 00:14:59;;;;;;;17.87;8.68;;;;;;;0.70;82.73;147847.52;1700816;84;21503;-59
2022/03/01 00:17:26;;;;;;;15.45;8.73;;;;;;;0.69;83.03;147844.95;1700350;84;21035;-59
2022/03/01 00:19:53;;;;;;;16.87;9.48;;;;;;;0.68;82.84;147842.38;1700557;84;21490;-58
2022/03/01 00:22:20;;;;;;;21.82;10.40;;;;;;;0.68;82.89;147842.38;1700361;84;21481;-59
2022/03/01 00:24:47;;;;;;;20.92;10.03;;;;;;;0.67;82.95;147839.81;1695362;84;21559;-59
2022/03/01 00:27:14;;;;;;;21.15;10.78;;;;;;;0.67;82.77;147839.81;1686366;85;21029;-58
2022/03/01 00:29:41;;;;;;;21.33;11.22;;;;;;;0.65;82.36;147835.92;1688804;84;21442;-58
2022/03/01 00:32:09;;;;;;;22.00;10.75;;;;;;;0.65;82.42;147834.66;1673126;85;21217;-58
2022/03/01 00:34:37;;;;;;;27.13;10.13;;;;;;;0.64;82.72;147832.08;1673210;85;21031;-58
2022/03/01 00:37:04;;;;;;;22.45;9.88;;;;;;;0.63;82.60;147829.52;1673297;85;21004;-62
2022/03/01 00:39:31;;;;;;;22.13;9.85;;;;;;;0.63;82.53;147829.52;1673467;85;21087;-63
2022/03/01 00:42:00;;;;;;;24.72;9.63;;;;;;;0.63;82.69;147829.52;1673594;85;20941;-64
2022/03/01 00:44:26;;;;;;;30.77;11.05;;;;;;;0.60;82.77;147821.78;1673207;85;21138;-64
2022/03/01 00:46:53;;;;;;;26.48;9.88;;;;;;;0.60;82.91;147821.78;1673823;85;21080;-64
2022/03/01 00:49:20;;;;;;;27.95;10.08;;;;;;;0.59;82.76;147819.22;1673526;85;21036;-63
2022/03/01 00:51:47;;;;;;;32.42;9.25;;;;;;;0.56;82.82;147814.08;1673761;85;21111;-64
2022/03/01 00:54:13;;;;;;;23.83;9.85;;;;;;;0.56;83.05;147812.77;1673400;85;21094;-63
2022/03/01 00:56:40;;;;;;;32.28;10.80;;;;;;;0.54;83.09;147808.88;1673502;85;21818;-62
2022/03/01 00:59:08;;;;;;;23.02;8.75;;;;;;;0.53;84.52;147806.31;1673947;84;20937;-62
2022/03/01 01:01:35;;;;;;;25.27;10.05;;;;;;;0.49;84.22;147796.02;1673339;85;21107;-63
2022/03/01 01:04:01;;;;;;;28.85;11.20;;;;;;;0.47;84.37;147790.87;1673674;84;21023;-63
2022/03/01 01:06:28;;;;;;;28.47;10.90;;;;;;;0.46;84.67;147788.30;1672819;84;21079;-59
2022/03/01 01:08:55;;;;;;;27.35;10.80;;;;;;;0.45;84.90;147784.47;1673374;85;21135;-59
2022/03/01 01:11:22;;;;;;;25.43;9.45;;;;;;;0.44;85.07;147783.16;1679444;84;21597;-59
2022/03/01 01:13:49;;;;;;;26.27;10.60;;;;;;;0.45;85.08;147785.72;1647208;85;21063;-59
2022/03/01 01:16:16;;;;;;;28.90;11.12;;;;;;;0.45;85.30;147785.72;1647344;87;21038;-63
2022/03/01 01:18:43;;;;;;;32.03;11.25;;;;;;;0.45;85.14;147785.72;1647904;87;21484;-63
2022/03/01 01:21:12;;;;;;;30.20;11.78;;;;;;;0.45;84.61;147785.72;1647666;86;21030;-64
2022/03/01 01:23:39;;;;;;;30.88;11.20;;;;;;;0.42;84.56;147778.00;1647345;87;21746;-62
2022/03/01 01:26:06;;;;;;;27.48;9.88;;;;;;;0.39;84.57;147771.55;1648272;84;21004;-62
2022/03/01 01:28:33;;;;;;;38.78;12.82;;;;;;;0.39;84.95;147770.28;1660661;85;21486;-58
2022/03/01 01:31:00;;;;;;;32.58;12.00;;;;;;;0.39;84.70;147770.28;1663888;86;21465;-59
2022/03/01 01:33:27;;;;;;;27.70;11.33;;;;;;;0.38;84.50;147767.72;1665092;86;21398;-60
2022/03/01 01:35:56;;;;;;;33.50;12.25;;;;;;;0.36;84.70;147763.83;1665307;85;20949;-58
2022/03/01 01:38:23;;;;;;;32.42;12.68;;;;;;;0.36;84.83;147762.56;1665038;86;21419;-64
2022/03/01 01:40:50;;;;;;;33.15;12.90;;;;;;;0.37;85.02;147766.41;1665473;86;21122;-58
2022/03/01 01:43:16;;;;;;;36.65;14.40;;;;;;;0.37;85.28;147765.14;1665398;86;21060;-58
2022/03/01 01:45:43;;;;;;;30.52;10.50;;;;;;;0.38;85.19;147767.72;1665164;86;21873;-58
2022/03/01 01:48:10;;;;;;;34.58;12.88;;;;;;;0.37;85.08;147766.41;1665203;86;21047;-64
2022/03/01 01:50:36;;;;;;;40.67;13.62;;;;;;;0.33;86.99;147756.11;1665145;86;21055;-62
2022/03/01 01:53:03;;;;;;;32.28;10.78;;;;;;;0.27;87.00;147741.94;1665311;86;21021;-64
2022/03/01 01:55:31;;;;;;;38.53;13.65;;;;;;;0.26;87.16;147738.11;1665007;86;21071;-63
2022/03/01 01:57:59;;;;;;;40.40;12.65;;;;;;;0.24;87.08;147734.22;1665349;86;21510;-63
2022/03/01 02:00:29;;;;;;;31.00;13.53;;;;;;;0.23;87.30;147731.66;1665191;86;21580;-59
2022/03/01 02:02:56;;;;;;;32.83;11.65;;;;;;;0.23;87.91;147730.39;1665254;86;21345;-63
2022/03/01 02:05:23;;;;;;;34.13;14.20;;;;;;;0.21;87.94;147726.50;1665320;86;21571;-63
2022/03/01 02:07:50;;;;;;;33.85;13.70;;;;;;;0.20;87.55;147723.94;1665393;86;21048;-62
2022/03/01 02:10:18;;;;;;;37.08;14.58;;;;;;;0.21;87.55;147726.50;1670931;85;21141;-58
2022/03/01 02:12:46;;;;;;;30.60;12.75;;;;;;;0.22;87.70;147729.08;1638131;87;21560;-63
2022/03/01 02:15:13;;;;;;;34.40;12.58;;;;;;;0.22;87.07;147729.08;1637910;87;21049;-63
2022/03/01 02:17:41;;;;;;;31.17;11.35;;;;;;;0.23;87.26;147731.66;1638420;87;21458;-63
2022/03/01 02:20:14;;;;;;;29.52;12.78;;;;;;;0.24;87.44;147734.22;1638565;87;20913;-61
2022/03/01 02:22:41;;;;;;;33.92;11.50;;;;;;;0.23;87.66;147731.66;1638550;87;21055;-58
2022/03/01 02:25:09;;;;;;;30.72;12.25;;;;;;;0.24;87.43;147734.22;1638029;87;21030;-61
2022/03/01 02:27:37;;;;;;;28.35;11.90;;;;;;;0.25;87.77;147735.53;1642147;86;21111;-63
2022/03/01 02:30:05;;;;;;;23.35;10.00;;;;;;;0.23;87.58;147731.66;1656695;84;21513;-63
2022/03/01 02:32:34;;;;;;;28.23;11.65;;;;;;;0.23;87.72;147731.66;1670371;85;21478;-58
2022/03/01 02:35:03;;;;;;;32.88;13.10;;;;;;;0.25;87.95;147735.53;1670323;85;21858;-58
2022/03/01 02:37:30;;;;;;;37.83;13.40;;;;;;;0.25;88.12;147735.53;1670349;85;21399;-63
2022/03/01 02:39:57;;;;;;;30.45;13.80;;;;;;;0.25;87.98;147736.80;1670492;85;21490;-64
2022/03/01 02:42:25;;;;;;;33.00;13.05;;;;;;;0.25;88.31;147736.80;1670140;84;21087;-59
2022/03/01 02:44:52;;;;;;;33.55;13.10;;;;;;;0.27;87.96;147740.69;1670418;85;21032;-59
2022/03/01 02:47:21;;;;;;;27.80;11.95;;;;;;;0.27;88.21;147741.94;1672865;84;22328;-63
2022/03/01 02:49:48;;;;;;;33.88;12.98;;;;;;;0.28;88.33;147744.52;1689206;83;21333;-62
2022/03/01 02:52:14;;;;;;;38.53;13.55;;;;;;;0.28;88.39;147744.52;1688704;83;21084;-62
2022/03/01 02:54:41;;;;;;;40.17;14.40;;;;;;;0.28;88.45;147744.52;1689393;83;21048;-63
2022/03/01 02:57:07;;;;;;;38.10;14.20;;;;;;;0.31;88.46;147749.66;1689396;84;21446;-62
2022/03/01 02:59:34;;;;;;;33.50;13.08;;;;;;;0.30;88.33;147748.41;1689101;83;21152;-62
2022/03/01 03:02:01;;;;;;;31.37;12.85;;;;;;;0.33;88.02;147754.81;1689453;84;21009;-62
2022/03/01 03:04:28;;;;;;;37.75;13.38;;;;;;;0.33;87.90;147756.11;1689198;84;21636;-62
2022/03/01 03:06:58;;;;;;;33.18;13.28;;;;;;;0.35;87.70;147760.00;1689360;84;21486;-62
2022/03/01 03:09:26;;;;;;;30.72;12.73;;;;;;;0.37;87.74;147765.14;1689714;84;21084;-62
2022/03/01 03:11:52;;;;;;;30.82;12.78;;;;;;;0.39;87.54;147770.28;1678025;84;21626;-63
2022/03/01 03:14:19;;;;;;;32.03;12.82;;;;;;;0.39;87.70;147770.28;1653344;85;21060;-63
2022/03/01 03:16:46;;;;;;;32.70;13.08;;;;;;;0.41;88.03;147776.69;1653597;85;21032;-63
2022/03/01 03:19:15;;;;;;;34.23;14.43;;;;;;;0.40;88.00;147772.86;1653659;85;21077;-59
2022/03/01 03:21:45;;;;;;;35.35;12.82;;;;;;;0.39;88.35;147771.55;1653455;86;21112;-63
2022/03/01 03:24:11;;;;;;;35.60;13.43;;;;;;;0.38;88.27;147767.72;1653535;85;21104;-64
2022/03/01 03:26:38;;;;;;;26.45;11.50;;;;;;;0.37;88.38;147765.14;1657793;85;21068;-63
2022/03/01 03:29:08;;;;;;;29.77;12.73;;;;;;;0.36;89.80;147762.56;1668173;84;21119;-60
2022/03/01 03:31:39;;;;;;;26.55;11.45;;;;;;;0.36;90.53;147762.56;1697102;83;21041;-58
2022/03/01 03:34:11;;;;;;;29.35;13.58;;;;;;;0.39;88.60;147770.28;1697337;84;21056;-58
2022/03/01 03:36:38;;;;;;;27.37;11.90;;;;;;;0.40;88.45;147772.86;1696911;83;21127;-62
2022/03/01 03:39:06;;;;;;;26.23;11.33;;;;;;;0.41;88.45;147775.44;1697571;82;21073;-59
2022/03/01 03:41:33;;;;;;;29.48;13.22;;;;;;;0.43;88.24;147780.58;1697998;83;21041;-64
2022/03/01 03:44:00;;;;;;;29.00;11.80;;;;;;;0.43;87.88;147781.84;1697979;83;20992;-58
2022/03/01 03:46:27;;;;;;;24.45;12.65;;;;;;;0.43;87.84;147780.58;1697659;83;21105;-61
2022/03/01 03:48:54;;;;;;;31.30;14.20;;;;;;;0.42;87.77;147778.00;1698366;82;21127;-62
2022/03/01 03:51:23;;;;;;;31.00;14.07;;;;;;;0.43;88.25;147780.58;1697882;84;21053;-58
2022/03/01 03:53:51;;;;;;;32.42;15.65;;;;;;;0.42;88.26;147778.00;1698072;84;21028;-63
2022/03/01 03:56:18;;;;;;;31.65;15.18;;;;;;;0.42;88.04;147778.00;1698094;82;21041;-63
2022/03/01 03:58:45;;;;;;;30.57;13.50;;;;;;;0.42;88.12;147778.00;1698281;83;21061;-63
2022/03/01 04:01:12;;;;;;;32.28;14.83;;;;;;;0.42;88.31;147778.00;1697841;84;21134;-58
2022/03/01 04:03:39;;;;;;;27.07;13.13;;;;;;;0.42;88.53;147778.00;1697810;82;21104;-62
2022/03/01 04:06:06;;;;;;;28.47;13.38;;;;;;;0.43;88.70;147780.58;1698072;83;21065;-65
2022/03/01 04:08:33;;;;;;;31.68;14.55;;;;;;;0.45;88.59;147784.47;1697733;84;21041;-59
2022/03/01 04:11:00;;;;;;;29.07;15.30;;;;;;;0.45;88.84;147785.72;1710512;83;21395;-58
2022/03/01 04:13:27;;;;;;;25.82;13.68;;;;;;;0.46;89.07;147788.30;1694501;84;21990;-58
2022/03/01 04:15:54;;;;;;;27.35;14.20;;;;;;;0.47;89.08;147789.61;1694741;83;21060;-63
2022/03/01 04:18:20;;;;;;;25.15;12.68;;;;;;;0.46;88.82;147788.30;1697489;83;21069;-63
2022/03/01 04:20:48;;;;;;;28.73;14.18;;;;;;;0.46;88.97;147787.03;1697578;83;21094;-58
2022/03/01 04:23:17;;;;;;;23.92;12.75;;;;;;;0.46;89.16;147788.30;1697221;84;21068;-58
2022/03/01 04:25:44;;;;;;;26.40;11.35;;;;;;;0.46;89.53;147788.30;1697865;83;21570;-59
2022/03/01 04:28:11;;;;;;;21.77;10.60;;;;;;;0.46;89.30;147788.30;1685228;82;21082;-60
2022/03/01 04:30:38;;;;;;;18.73;9.83;;;;;;;0.44;89.03;147783.16;1678193;84;21069;-60
2022/03/01 04:33:05;;;;;;;19.95;10.25;;;;;;;0.42;89.49;147778.00;1682623;84;21050;-59
2022/03/01 04:35:32;;;;;;;25.82;13.40;;;;;;;0.40;89.59;147772.86;1682361;84;21077;-58
2022/03/01 04:38:00;;;;;;;26.00;12.75;;;;;;;0.40;90.64;147774.13;1682716;84;21456;-63
2022/03/01 04:40:27;;;;;;;23.20;12.43;;;;;;;0.40;91.08;147772.86;1682221;84;21093;-63
2022/03/01 04:42:53;;;;;;;22.80;12.60;;;;;;;0.40;91.25;147772.86;1657226;85;21082;-59
2022/03/01 04:45:20;;;;;;;20.32;11.18;;;;;;;0.41;91.37;147775.44;1682186;84;21567;-59
2022/03/01 04:47:47;;;;;;;19.90;11.57;;;;;;;0.41;92.04;147775.44;1682557;85;21103;-59
2022/03/01 04:50:14;;;;;;;22.30;11.30;;;;;;;0.41;92.35;147775.44;1682237;84;21106;-59
2022/03/01 04:52:41;;;;;;;21.37;11.63;;;;;;;0.39;92.41;147771.55;1682399;85;21093;-63
2022/03/01 04:55:10;;;;;;;20.23;10.88;;;;;;;0.37;92.61;147765.14;1682714;85;20984;-63
2022/03/01 04:57:36;;;;;;;25.52;12.70;;;;;;;0.34;93.32;147757.44;1682386;85;21065;-63
2022/03/01 05:00:11;;;;;;;23.22;12.23;;;;;;;0.30;93.98;147748.41;1682653;85;21475;-63
2022/03/01 05:02:42;;;;;;;19.75;10.95;;;;;;;0.27;94.39;147741.94;1682756;84;21114;-58
2022/03/01 05:05:11;;;;;;;23.25;12.30;;;;;;;0.26;94.83;147739.37;1682820;85;20915;-59
2022/03/01 05:07:44;;;;;;;24.82;12.73;;;;;;;0.25;95.17;147735.53;1682655;84;21073;-64
2022/03/01 05:10:12;;;;;;;23.35;11.12;;;;;;;0.24;95.75;147734.22;1688091;84;20968;-64
2022/03/01 05:12:49;;;;;;;20.52;11.88;;;;;;;0.21;96.51;147725.20;1678073;84;21104;-64
2022/03/01 05:15:17;;;;;;;26.90;13.32;;;;;;;0.19;96.75;147720.06;1677489;84;21915;-62
2022/03/01 05:17:43;;;;;;;31.00;13.05;;;;;;;0.18;97.43;147717.48;1677327;85;21517;-63
2022/03/01 05:20:12;;;;;;;22.07;11.20;;;;;;;0.15;98.12;147711.08;1677243;85;21027;-63
2022/03/01 05:22:39;;;;;;;22.62;11.78;;;;;;;0.13;98.48;147705.94;1677186;84;21112;-63
2022/03/01 05:25:09;;;;;;;27.07;12.47;;;;;;;0.11;99.00;147700.75;1677796;84;21514;-60
2022/03/01 05:27:37;;;;;;;22.32;11.88;;;;;;;0.10;99.24;147699.48;1681653;84;21154;-59
2022/03/01 05:30:06;;;;;;;22.25;12.30;;;;;;;0.09;99.18;147696.91;1655374;85;21034;-62
2022/03/01 05:32:34;;;;;;;21.62;10.95;;;;;;;0.11;99.08;147702.05;1662647;84;21571;-62
2022/03/01 05:35:02;;;;;;;23.00;12.23;;;;;;;0.12;98.77;147704.63;1662953;86;21023;-63
2022/03/01 05:37:29;;;;;;;20.00;10.15;;;;;;;0.16;98.39;147713.66;1663160;86;21041;-63
2022/03/01 05:39:56;;;;;;;18.75;9.50;;;;;;;0.17;97.61;147716.22;1663155;84;21388;-62
2022/03/01 05:42:23;;;;;;;18.02;9.88;;;;;;;0.22;96.54;147729.08;1662851;84;21101;-62
2022/03/01 05:44:51;;;;;;;20.65;10.00;;;;;;;0.27;95.39;147741.94;1663288;84;21392;-63
2022/03/01 05:47:18;;;;;;;19.42;9.88;;;;;;;0.32;95.28;147752.23;1662925;84;21014;-62
2022/03/01 05:49:47;;;;;;;18.65;9.68;;;;;;;0.34;95.97;147758.69;1677618;83;21263;-62
2022/03/01 05:52:14;;;;;;;21.05;10.75;;;;;;;0.34;96.62;147758.69;1690538;83;21133;-63
2022/03/01 05:54:41;;;;;;;20.57;10.75;;;;;;;0.34;97.68;147757.44;1689593;84;21695;-63
2022/03/01 05:57:08;;;;;;;21.23;11.03;;;;;;;0.28;98.82;147744.52;1690583;84;21121;-62
2022/03/01 05:59:34;;;;;;;19.90;9.50;;;;;;;0.24;99.81;147734.22;1690716;83;21082;-59
2022/03/01 06:02:02;;;;;;;20.05;9.05;;;;;;;0.17;100.00;147716.22;1691114;84;21019;-59
2022/03/01 06:04:29;;;;;;;19.32;9.85;;;;;;;0.11;100.00;147700.75;1690718;84;21134;-59
2022/03/01 06:06:55;;;;;;;23.65;10.80;;;;;;;0.07;100.00;147690.45;1691207;83;21568;-61
2022/03/01 06:09:23;;;;;;;21.73;10.38;;;;;;;0.02;100.00;147678.91;1694129;83;21053;-59
2022/03/01 06:11:50;;;;;;;19.77;10.18;;;;;;;-0.01;100.00;147672.45;1700848;83;21028;-62
2022/03/01 06:14:17;;;;;;;23.05;10.80;;;;;;;-0.04;100.00;147664.73;1687566;83;21013;-62
2022/03/01 06:16:44;;;;;;;20.80;9.70;;;;;;;-0.04;100.00;147664.73;1687200;85;21505;-62
2022/03/01 06:19:11;;;;;;;28.05;11.50;;;;;;;-0.05;100.00;147660.86;1687346;85;21125;-61
2022/03/01 06:21:39;;;;;;;19.70;10.55;;;;;;;-0.05;100.00;147662.16;1687572;83;21104;-61
2022/03/01 06:24:06;;;;;;;22.40;10.65;;;;;;;-0.03;100.00;147666.00;1687587;83;21069;-61
2022/03/01 06:26:35;;;;;;;21.10;10.72;;;;;;;-0.02;100.00;147669.88;1687554;83;20945;-58
2022/03/01 06:29:02;;;;;;;22.98;11.73;;;;;;;-0.01;100.00;147672.45;1677963;84;22355;-58
2022/03/01 06:31:29;;;;;;;22.75;10.95;;;;;;;0.02;100.00;147677.59;1651383;86;21091;-58
2022/03/01 06:33:56;;;;;;;23.62;10.45;;;;;;;0.04;100.00;147682.73;1667842;86;21553;-57
2022/03/01 06:36:25;;;;;;;20.23;8.55;;;;;;;0.05;100.00;147686.63;1682760;85;21122;-58
2022/03/01 06:38:52;;;;;;;24.35;11.20;;;;;;;0.06;100.00;147689.19;1682919;84;21105;-57
2022/03/01 06:41:19;;;;;;;23.95;11.38;;;;;;;0.05;100.00;147686.63;1683058;84;21802;-57
2022/03/01 06:43:46;;;;;;;22.93;11.35;;;;;;;0.06;100.00;147689.19;1682431;84;21118;-59
2022/03/01 06:46:13;;;;;;;22.75;11.55;;;;;;;0.06;100.00;147687.87;1682408;85;21422;-59
2022/03/01 06:48:40;;;;;;;24.95;12.18;;;;;;;0.04;100.00;147684.05;1682213;84;21121;-59
2022/03/01 06:51:07;;;;;;;22.32;11.40;;;;;;;0.03;100.00;147681.47;1683284;85;20983;-59
2022/03/01 06:53:36;;;;;;;21.02;10.78;;;;;;;0.05;100.00;147685.31;1682379;85;21140;-59
2022/03/01 06:56:03;;;;;;;25.37;12.35;;;;;;;0.05;100.00;147686.63;1682326;84;21432;-59
2022/03/01 06:58:31;;;;;;;26.70;12.63;;;;;;;0.07;100.00;147690.45;1682549;85;21023;-61
2022/03/01 07:01:00;;;;;;;23.25;12.18;;;;;;;0.07;100.00;147690.45;1682752;84;21102;-60
2022/03/01 07:03:26;;;;;;;26.90;12.78;;;;;;;0.10;100.00;147698.17;1682088;85;21088;-59
2022/03/01 07:05:53;;;;;;;24.70;12.88;;;;;;;0.10;100.00;147698.17;1682514;84;21574;-60
2022/03/01 07:08:22;;;;;;;26.65;13.98;;;;;;;0.10;100.00;147698.17;1682251;84;21581;-60
2022/03/01 07:10:50;;;;;;;26.85;14.30;;;;;;;0.11;100.00;147700.75;1687930;84;21072;-61
2022/03/01 07:13:17;;;;;;;26.20;13.98;;;;;;;0.13;100.00;147705.94;1676904;85;20942;-61
2022/03/01 07:15:43;;;;;;;29.60;14.58;;;;;;;0.17;100.00;147716.22;1677306;85;21060;-62
2022/03/01 07:18:11;;;;;;;24.65;12.50;;;;;;;0.17;100.00;147716.22;1677299;85;21104;-60
2022/03/01 07:20:38;;;;;;;27.40;14.47;;;;;;;0.18;100.00;147718.80;1677151;84;21053;-60
2022/03/01 07:23:05;;;;;;;28.80;13.85;;;;;;;0.19;100.00;147721.38;1677602;85;21021;-60
2022/03/01 07:25:32;;;;;;;28.98;14.58;;;;;;;0.21;100.00;147726.50;1677269;84;21049;-60
2022/03/01 07:27:59;;;;;;;26.70;13.48;;;;;;;0.20;100.00;147723.94;1680164;84;21474;-60
2022/03/01 07:30:27;;;;;;;26.57;13.40;;;;;;;0.20;100.00;147723.94;1689590;83;21091;-60
2022/03/01 07:32:56;;;;;;;30.08;12.75;;;;;;;0.19;100.00;147721.38;1690296;83;21081;-62
2022/03/01 07:35:24;;;;;;;25.52;12.45;;;;;;;0.21;100.00;147726.50;1690238;83;21552;-59
2022/03/01 07:37:51;;;;;;;29.75;13.75;;;;;;;0.22;100.00;147729.08;1690786;84;21085;-59
2022/03/01 07:40:19;;;;;;;28.38;13.95;;;;;;;0.23;100.00;147731.66;1690605;83;21479;-59
2022/03/01 07:42:46;;;;;;;34.45;14.50;;;;;;;0.24;100.00;147734.22;1690787;83;21176;-58
2022/03/01 07:45:12;;;;;;;26.48;14.00;;;;;;;0.26;100.00;147739.37;1690796;83;21025;-60
2022/03/01 07:47:39;;;;;;;26.12;13.62;;;;;;;0.30;100.00;147747.09;1690680;84;21058;-59
2022/03/01 07:50:08;;;;;;;26.00;12.65;;;;;;;0.31;100.00;147749.66;1692107;83;20951;-59
2022/03/01 07:52:34;;;;;;;26.20;12.82;;;;;;;0.32;100.00;147753.55;1690113;83;22089;-60
2022/03/01 07:55:02;;;;;;;30.27;14.03;;;;;;;0.32;100.00;147753.55;1689512;83;22880;-60
2022/03/01 07:57:30;;;;;;;23.50;12.03;;;;;;;0.33;100.00;147756.11;1689242;83;21586;-60
2022/03/01 07:59:57;;;;;;;28.38;13.03;;;;;;;0.33;100.00;147754.81;1690220;83;22138;-60
2022/03/01 08:02:24;;;;;;;27.42;12.75;;;;;;;0.32;100.00;147752.23;1690197;84;21116;-60
2022/03/01 08:04:50;;;;;;;27.48;12.78;;;;;;;0.31;100.00;147750.97;1689928;84;21097;-59
2022/03/01 08:07:17;;;;;;;21.62;11.35;;;;;;;0.33;100.00;147754.81;1690192;83;21879;-60
2022/03/01 08:09:44;;;;;;;23.42;10.28;;;;;;;0.33;100.00;147756.11;1697742;83;21012;-59
2022/03/01 08:12:13;;;;;;;27.52;10.25;;;;;;;0.34;100.00;147758.69;1694771;83;21443;-59
2022/03/01 08:14:41;;;;;;;26.45;12.10;;;;;;;0.36;100.00;147763.83;1706097;83;21076;-59
2022/03/01 08:17:07;;;;;;;25.00;11.63;;;;;;;0.37;100.00;147765.14;1710314;83;20989;-60
2022/03/01 08:19:36;;;;;;;30.70;11.83;;;;;;;0.38;100.00;147768.97;1709769;83;21668;-60
2022/03/01 08:22:03;;;;;;;23.87;12.00;;;;;;;0.41;100.00;147775.44;1709981;83;21493;-62
2022/03/01 08:24:29;;;;;;;27.42;12.28;;;;;;;0.42;100.00;147778.00;1710040;83;21095;-61
2022/03/01 08:26:57;;;;;;;27.40;13.25;;;;;;;0.46;100.00;147787.03;1709753;82;21448;-62
2022/03/01 08:29:24;;;;;;;23.62;11.53;;;;;;;0.47;100.00;147789.61;1709710;83;21050;-62
2022/03/01 08:31:50;;;;;;;28.42;13.55;;;;;;;0.48;100.00;147793.44;1696508;84;21117;-60
2022/03/01 08:34:17;;;;;;;27.48;13.10;;;;;;;0.48;100.00;147792.19;1696136;84;21068;-61
2022/03/01 08:36:44;;;;;;;28.12;13.90;;;;;;;0.48;100.00;147793.44;1696075;84;21501;-62
2022/03/01 08:39:11;;;;;;;26.70;13.28;;;;;;;0.51;100.00;147799.91;1696792;84;21068;-61
2022/03/01 08:41:38;;;;;;;32.73;14.40;;;;;;;0.52;100.00;147803.73;1696156;84;21017;-61
2022/03/01 08:44:05;;;;;;;28.07;12.98;;;;;;;0.54;100.00;147808.88;1695965;84;21564;-62
2022/03/01 08:46:32;;;;;;;26.57;13.30;;;;;;;0.54;100.00;147808.88;1696115;84;21025;-61
2022/03/01 08:48:59;;;;;;;30.17;13.80;;;;;;;0.55;100.00;147811.50;1696436;84;21060;-62
2022/03/01 08:51:27;;;;;;;28.35;13.78;;;;;;;0.62;100.00;147826.94;1696060;84;21104;-61
2022/03/01 08:53:54;;;;;;;27.77;14.07;;;;;;;0.63;100.00;147829.52;1696146;84;21561;-61
2022/03/01 08:56:21;;;;;;;28.40;12.55;;;;;;;0.64;100.00;147833.34;1695925;84;21486;-61
2022/03/01 08:58:49;;;;;;;26.42;11.83;;;;;;;0.67;100.00;147839.81;1695983;84;21100;-60
2022/03/01 09:01:16;;;;;;;26.50;12.35;;;;;;;0.71;100.00;147850.09;1696457;84;21013;-60
2022/03/01 09:03:43;;;;;;;27.62;12.05;;;;;;;0.72;100.00;147852.67;1696226;84;21934;-61
2022/03/01 09:06:10;;;;;;;23.90;11.80;;;;;;;0.69;100.00;147844.95;1696563;84;21060;-61
2022/03/01 09:08:40;;;;;;;28.23;13.18;;;;;;;0.65;100.00;147834.66;1696324;84;21538;-62
2022/03/01 09:11:09;;;;;;;27.98;12.53;;;;;;;0.60;100.00;147821.78;1696691;84;21007;-61
2022/03/01 09:13:36;;;;;;;23.75;11.75;;;;;;;0.55;100.00;147811.50;1696181;84;21116;-60
2022/03/01 09:16:06;;;;;;;28.98;12.98;;;;;;;0.52;100.00;147803.73;1697420;84;21105;-61
2022/03/01 09:18:34;;;;;;;28.67;12.73;;;;;;;0.51;100.00;147801.16;1698168;82;21060;-61
2022/03/01 09:21:02;;;;;;;29.65;13.08;;;;;;;0.51;100.00;147801.16;1697974;84;21069;-61
2022/03/01 09:23:31;;;;;;;31.23;13.00;;;;;;;0.52;100.00;147802.47;1698150;82;21037;-60
2022/03/01 09:25:58;;;;;;;31.37;14.73;;;;;;;0.51;100.00;147801.16;1697830;83;21563;-62
2022/03/01 09:28:26;;;;;;;32.58;14.35;;;;;;;0.52;100.00;147803.73;1699570;83;21736;-62
2022/03/01 09:30:55;;;;;;;29.67;13.95;;;;;;;0.54;100.00;147808.88;1699655;83;21089;-61
2022/03/01 09:33:22;;;;;;;30.77;13.38;;;;;;;0.55;100.00;147811.50;1704426;84;21132;-61
2022/03/01 09:35:48;;;;;;;31.30;13.90;;;;;;;0.56;100.00;147812.77;1703628;82;22153;-61
2022/03/01 09:38:15;;;;;;;31.30;15.43;;;;;;;0.58;100.00;147817.91;1704907;84;21531;-59
2022/03/01 09:40:50;;;;;;;31.42;15.00;;;;;;;0.63;100.00;147829.52;1704676;82;21149;-60
2022/03/01 09:43:16;;;;;;;30.25;14.28;;;;;;;0.66;100.00;147837.23;1705064;83;21092;-59
2022/03/01 09:45:43;;;;;;;31.23;12.90;;;;;;;0.71;100.00;147850.09;1704509;83;21240;-59
2022/03/01 09:48:10;;;;;;;28.65;13.60;;;;;;;0.75;100.00;147860.39;1704842;83;21066;-59
2022/03/01 09:50:37;;;;;;;31.40;14.40;;;;;;;0.79;100.00;147870.73;1704610;82;21630;-65
2022/03/01 09:53:06;;;;;;;26.68;13.70;;;;;;;0.85;100.00;147886.17;1705178;83;21021;-66
2022/03/01 09:55:35;;;;;;;24.72;12.43;;;;;;;0.89;100.00;147893.89;1704619;82;21101;-68
2022/03/01 09:58:01;;;;;;;29.10;11.73;;;;;;;0.90;100.00;147896.47;1704979;83;21662;-68
2022/03/01 10:00:28;;;;;;;25.88;11.65;;;;;;;0.90;100.00;147896.47;1704828;84;21062;-68
2022/03/01 10:02:57;;;;;;;29.72;13.55;;;;;;;0.90;100.00;147897.78;1704326;83;21090;-68
2022/03/01 10:05:38;;;;;;;27.48;12.20;;;;;;;0.91;100.00;147899.03;1705514;84;21144;-69
2022/03/01 10:08:23;;;;;;;29.77;12.35;;;;;;;0.92;100.00;147901.63;1704789;83;21480;-59
2022/03/01 10:11:09;;;;;;;30.72;13.25;;;;;;;0.92;100.00;147902.92;1694530;83;21806;-66
2022/03/01 10:13:39;;;;;;;23.95;11.57;;;;;;;0.93;100.00;147905.50;1690468;83;20974;-67
2022/03/01 10:16:15;;;;;;;27.13;12.88;;;;;;;0.94;100.00;147908.06;1690504;83;21022;-68
2022/03/01 10:18:53;;;;;;;24.32;12.15;;;;;;;0.95;100.00;147910.64;1690576;83;21053;-59
2022/03/01 10:21:21;;;;;;;30.88;13.03;;;;;;;0.97;100.00;147914.48;1690931;83;21108;-59
2022/03/01 10:23:54;;;;;;;24.77;12.07;;;;;;;0.96;100.00;147911.91;1690336;83;21661;-69
2022/03/01 10:26:26;;;;;;;27.82;12.07;;;;;;;0.97;100.00;147914.48;1690550;84;21432;-69
2022/03/01 10:28:56;;;;;;;25.90;12.13;;;;;;;0.97;100.00;147914.48;1692011;83;21097;-69
2022/03/01 10:31:27;;;;;;;24.12;11.68;;;;;;;0.96;100.00;147911.91;1724706;83;21501;-72
2022/03/01 10:34:06;;;;;;;27.95;13.38;;;;;;;0.96;100.00;147911.91;1724943;83;22108;-69
2022/03/01 10:36:44;;;;;;;34.88;14.35;;;;;;;0.97;100.00;147914.48;1725029;83;21411;-68
2022/03/01 10:39:17;;;;;;;26.97;12.70;;;;;;;0.99;100.00;147920.94;1724949;83;21035;-69
2022/03/01 10:41:49;;;;;;;23.35;10.53;;;;;;;1.00;100.00;147922.25;1724500;83;21055;-68
2022/03/01 10:44:28;;;;;;;27.00;11.45;;;;;;;1.01;100.00;147924.83;1724888;83;21508;-69
2022/03/01 10:47:05;;;;;;;22.95;11.43;;;;;;;0.99;100.00;147920.94;1724414;83;21027;-58
2022/03/01 10:49:34;;;;;;;24.45;11.63;;;;;;;0.98;100.00;147917.06;1724759;83;21195;-58
2022/03/01 10:52:07;;;;;;;17.37;8.20;;;;;;;0.98;100.00;147917.06;1724620;83;21432;-58
2022/03/01 10:54:40;;;;;;;23.35;10.32;;;;;;;0.97;100.00;147914.48;1725176;83;21290;-71
2022/03/01 10:57:11;;;;;;;25.75;12.68;;;;;;;0.94;100.00;147908.06;1724890;83;21470;-59
2022/03/01 10:59:40;;;;;;;28.92;12.45;;;;;;;0.91;100.00;147900.34;1722704;83;21038;-59
2022/03/01 11:02:07;;;;;;;25.20;11.88;;;;;;;0.88;100.00;147892.58;1724636;83;21131;-58
2022/03/01 11:04:34;;;;;;;25.35;12.00;;;;;;;0.87;100.00;147888.75;1724862;83;21038;-59
2022/03/01 11:07:04;;;;;;;31.33;14.38;;;;;;;0.85;100.00;147884.86;1706523;83;21098;-61
2022/03/01 11:09:32;;;;;;;25.70;12.88;;;;;;;0.84;100.00;147882.28;1696269;83;21122;-59
2022/03/01 11:12:01;;;;;;;27.48;13.72;;;;;;;0.82;100.00;147878.45;1694731;84;21080;-58
2022/03/01 11:14:40;;;;;;;28.38;14.00;;;;;;;0.80;100.00;147873.31;1694910;83;21006;-58
2022/03/01 11:17:56;;;;;;;24.95;13.28;;;;;;;0.80;100.00;147873.31;1647137;83;21524;-67